DNKN/KAN METAR and TAF weather

Enter ICAO airport designator
Station Type Date Time Source
DNKN METAR 2021/06/22 16:00 UTC NOAA

DNKN 221600Z 34003KT CAVOK 28/21 Q1014 NOSIG


Station Type Date Time Source
DNKN Decoded METAR 2021/06/22 16:00 UTC NOAA

Kano, Nigeria (DNKN) 12-03N 008-32E 481M
Jun 22, 2021 - 12:00 PM EDT / 2021.06.22 1600 UTC
Wind: from the NNW (340 degrees) at 3 MPH (3 KT):0
Visibility: greater than 7 mile(s):0
Temperature: 82 F (28 C)
Dew Point: 69 F (21 C)
Relative Humidity: 65%
Pressure (altimeter): 29.94 in. Hg (1014 hPa)
ob: DNKN 221600Z 34003KT CAVOK 28/21 Q1014 NOSIG
cycle: 16

Station Type Date Time Source
DNKN TAF 2021/06/22 12:51 UTC NOAA

TAF TAF DNKN 221100Z 2212/2318 24008KT 9999 FEW013
TEMPO 2218/2223 TS SCT014 FEW020CB

Example: see airport list